createdAt,value
2022-09-04T00:01:25.362Z,93.03
2022-09-04T00:03:57.857Z,93.17
2022-09-04T00:06:30.474Z,92.01
2022-09-04T00:09:04.320Z,90.72
2022-09-04T00:11:42.243Z,90.00
2022-09-04T00:14:12.522Z,90.39
2022-09-04T00:16:43.392Z,91.23
2022-09-04T00:19:14.705Z,92.15
2022-09-04T00:21:45.724Z,92.73
2022-09-04T00:24:16.898Z,92.96
2022-09-04T00:26:49.092Z,93.13
2022-09-04T00:29:21.174Z,93.58
2022-09-04T00:31:52.022Z,93.80
2022-09-04T00:34:25.632Z,93.66
2022-09-04T00:36:56.087Z,93.78
2022-09-04T00:39:28.963Z,94.11
2022-09-04T00:42:01.503Z,94.42
2022-09-04T00:44:44.829Z,94.94
2022-09-04T00:47:24.717Z,95.27
2022-09-04T00:50:12.247Z,95.64
2022-09-04T00:52:58.392Z,95.28
2022-09-04T00:55:40.294Z,95.13
2022-09-04T00:58:16.653Z,95.01
2022-09-04T01:00:47.494Z,94.87
2022-09-04T01:03:31.399Z,94.97
2022-09-04T01:06:18.471Z,95.02
2022-09-04T01:09:00.213Z,95.40
2022-09-04T01:11:32.432Z,96.06
2022-09-04T01:14:13.413Z,96.29
2022-09-04T01:16:45.986Z,96.44
2022-09-04T01:19:20.012Z,96.46
2022-09-04T01:21:51.934Z,96.85
2022-09-04T01:24:26.701Z,96.76
2022-09-04T01:26:57.786Z,96.82
2022-09-04T01:29:30.611Z,97.00
2022-09-04T01:32:02.953Z,96.94
2022-09-04T01:34:35.995Z,96.89
2022-09-04T01:37:07.447Z,97.06
2022-09-04T01:39:37.573Z,97.51
2022-09-04T01:42:09.164Z,97.81
2022-09-04T01:44:38.953Z,97.89
2022-09-04T01:47:12.317Z,98.10
2022-09-04T01:49:42.967Z,98.22
2022-09-04T01:52:16.524Z,98.11
2022-09-04T01:54:51.371Z,97.90
2022-09-04T01:57:25.887Z,98.09
2022-09-04T01:59:59.444Z,98.21
2022-09-04T02:02:30.841Z,97.92
2022-09-04T02:05:08.223Z,97.70
2022-09-04T02:07:40.079Z,97.42
2022-09-04T02:10:12.866Z,97.44
2022-09-04T02:12:51.302Z,97.62
2022-09-04T02:15:26.814Z,97.43
2022-09-04T02:17:58.670Z,97.11
2022-09-04T02:20:29.017Z,97.03
2022-09-04T02:23:04.722Z,97.29
2022-09-04T02:25:36.751Z,97.29
2022-09-04T02:28:11.590Z,97.35
2022-09-04T02:30:43.594Z,97.17
2022-09-04T02:33:19.608Z,97.07
2022-09-04T02:35:50.814Z,97.25
2022-09-04T02:38:22.775Z,97.39
2022-09-04T02:40:53.291Z,97.39
2022-09-04T02:43:26.428Z,97.52
2022-09-04T02:46:00.549Z,97.51
2022-09-04T02:48:35.627Z,97.28
2022-09-04T02:51:14.227Z,97.33
2022-09-04T02:53:45.836Z,97.18
2022-09-04T02:56:21.511Z,97.11
2022-09-04T02:58:54.512Z,96.73
2022-09-04T03:01:26.305Z,96.64
2022-09-04T03:03:58.730Z,96.69
2022-09-04T03:06:41.046Z,96.51
2022-09-04T03:09:11.948Z,96.35
2022-09-04T03:11:42.703Z,96.36
2022-09-04T03:14:13.988Z,96.36
2022-09-04T03:16:44.541Z,96.28
2022-09-04T03:19:16.794Z,96.29
2022-09-04T03:21:47.629Z,96.53
2022-09-04T03:24:19.095Z,96.50
2022-09-04T03:26:50.951Z,96.33
2022-09-04T03:29:24.953Z,96.20
2022-09-04T03:31:58.764Z,96.09
2022-09-04T03:34:31.429Z,96.20
2022-09-04T03:37:05.130Z,96.36
2022-09-04T03:39:36.814Z,96.60
2022-09-04T03:42:08.133Z,96.61
2022-09-04T03:44:41.734Z,96.89
2022-09-04T03:47:13.627Z,97.15
2022-09-04T03:49:47.822Z,97.30
2022-09-04T03:52:20.125Z,97.39
2022-09-04T03:55:11.408Z,97.77
2022-09-04T03:57:50.891Z,97.46
2022-09-04T04:00:21.850Z,97.15
2022-09-04T04:03:02.119Z,97.13
2022-09-04T04:05:37.254Z,97.22
2022-09-04T04:08:11.580Z,96.91
2022-09-04T04:10:46.005Z,96.65
2022-09-04T04:13:21.856Z,96.50
2022-09-04T04:15:54.530Z,96.30
2022-09-04T04:18:35.177Z,96.18
2022-09-04T04:21:06.678Z,95.89
2022-09-04T04:23:43.651Z,95.73
2022-09-04T04:26:15.106Z,95.85
2022-09-04T04:29:00.094Z,95.79
2022-09-04T04:31:34.980Z,95.81
2022-09-04T04:34:05.983Z,95.90
2022-09-04T04:36:40.415Z,95.47
2022-09-04T04:39:16.589Z,95.33
2022-09-04T04:42:08.524Z,95.02
2022-09-04T04:45:11.524Z,94.31
2022-09-04T04:47:57.836Z,94.20
2022-09-04T04:50:28.686Z,94.19
2022-09-04T04:53:01.113Z,94.31
2022-09-04T04:55:40.212Z,94.22
2022-09-04T04:58:29.424Z,93.74
2022-09-04T05:01:05.517Z,93.61
2022-09-04T05:03:39.572Z,93.58
2022-09-04T05:06:12.714Z,93.34
2022-09-04T05:08:44.093Z,92.90
2022-09-04T05:11:15.499Z,92.58
2022-09-04T05:13:52.795Z,92.55
2022-09-04T05:16:24.395Z,92.42
2022-09-04T05:18:57.292Z,92.51
2022-09-04T05:21:30.475Z,92.67
2022-09-04T05:24:01.098Z,92.42
2022-09-04T05:26:32.817Z,92.28
2022-09-04T05:29:04.702Z,91.96
2022-09-04T05:31:38.215Z,92.00
2022-09-04T05:34:11.197Z,92.07
2022-09-04T05:36:44.593Z,92.21
2022-09-04T05:39:16.951Z,92.04
2022-09-04T05:41:52.310Z,91.88
2022-09-04T05:44:28.214Z,91.69
2022-09-04T05:47:02.653Z,91.56
2022-09-04T05:49:36.843Z,91.44
2022-09-04T05:52:10.713Z,91.17
2022-09-04T05:54:57.242Z,90.88
2022-09-04T05:57:32.617Z,90.64
2022-09-04T06:00:07.699Z,90.25
2022-09-04T06:02:56.821Z,89.70
2022-09-04T06:05:31.648Z,89.12
2022-09-04T06:08:07.648Z,89.00
2022-09-04T06:10:41.152Z,88.80
2022-09-04T06:13:15.567Z,88.63
2022-09-04T06:15:48.672Z,88.59
2022-09-04T06:18:26.957Z,88.50
2022-09-04T06:21:01.012Z,88.18
2022-09-04T06:23:46.815Z,87.49
2022-09-04T06:26:31.698Z,87.00
2022-09-04T06:29:06.702Z,87.30
2022-09-04T06:31:57.201Z,87.46
2022-09-04T06:34:30.888Z,87.37
2022-09-04T06:37:04.228Z,87.84
2022-09-04T06:39:39.326Z,87.91
2022-09-04T06:42:13.193Z,87.79
2022-09-04T06:44:48.656Z,87.86
2022-09-04T06:47:21.654Z,87.91
2022-09-04T06:49:59.506Z,87.27
2022-09-04T06:52:31.099Z,86.83
2022-09-04T06:55:01.555Z,86.48
2022-09-04T06:57:39.049Z,85.83
2022-09-04T07:00:10.309Z,85.75
2022-09-04T07:02:45.338Z,86.43
2022-09-04T07:05:19.026Z,86.68
2022-09-04T07:07:50.800Z,86.26
2022-09-04T07:10:21.959Z,86.62
2022-09-04T07:13:02.579Z,86.70
2022-09-04T07:15:37.452Z,86.30
2022-09-04T07:18:11.294Z,86.67
2022-09-04T07:20:43.265Z,86.66
2022-09-04T07:23:23.941Z,87.00
2022-09-04T07:26:00.148Z,87.15
2022-09-04T07:28:34.156Z,87.21
2022-09-04T07:31:05.519Z,86.88
2022-09-04T07:33:36.872Z,86.84
2022-09-04T07:36:09.640Z,86.94
2022-09-04T07:38:42.383Z,86.67
2022-09-04T07:41:17.645Z,86.18
2022-09-04T07:43:54.695Z,85.75
2022-09-04T07:46:30.669Z,86.04
2022-09-04T07:49:07.409Z,86.62
2022-09-04T07:51:38.099Z,85.93
2022-09-04T07:54:22.622Z,85.53
2022-09-04T07:57:00.123Z,84.92
2022-09-04T07:59:49.585Z,84.44
2022-09-04T08:02:36.283Z,84.91
2022-09-04T08:05:09.936Z,84.65
2022-09-04T08:08:00.723Z,83.99
2022-09-04T08:10:31.776Z,83.44
2022-09-04T08:13:15.290Z,83.68
2022-09-04T08:15:46.809Z,83.60
2022-09-04T08:18:21.541Z,83.79
2022-09-04T08:20:53.011Z,84.20
2022-09-04T08:23:36.056Z,83.75
2022-09-04T08:26:14.844Z,82.86
2022-09-04T08:29:04.122Z,82.72
2022-09-04T08:31:35.014Z,82.27
2022-09-04T08:34:25.762Z,82.55
2022-09-04T08:36:57.211Z,82.14
2022-09-04T08:39:30.182Z,82.48
2022-09-04T08:42:22.607Z,82.43
2022-09-04T08:45:09.383Z,81.99
2022-09-04T08:47:57.712Z,81.73
2022-09-04T08:50:40.816Z,81.25
2022-09-04T08:53:24.023Z,80.89
2022-09-04T08:55:57.270Z,80.01
2022-09-04T08:58:47.955Z,79.48
2022-09-04T09:01:25.747Z,79.40
2022-09-04T09:04:21.319Z,78.71
2022-09-04T09:07:04.570Z,78.47
2022-09-04T09:10:06.107Z,78.71
2022-09-04T09:12:54.219Z,78.33
2022-09-04T09:15:37.513Z,78.17
2022-09-04T09:18:11.923Z,77.62
2022-09-04T09:20:44.428Z,76.77
2022-09-04T09:23:21.804Z,76.55
2022-09-04T09:25:53.314Z,76.16
2022-09-04T09:28:42.674Z,75.75
2022-09-04T09:31:27.935Z,75.08
2022-09-04T09:34:14.045Z,75.03
2022-09-04T09:36:52.619Z,74.31
2022-09-04T09:39:34.040Z,73.94
2022-09-04T09:42:27.533Z,73.36
2022-09-04T09:45:11.348Z,73.36
2022-09-04T09:47:46.532Z,73.61
2022-09-04T09:50:21.640Z,73.39
2022-09-04T09:53:04.834Z,73.37
2022-09-04T09:55:42.268Z,72.75
2022-09-04T09:58:25.603Z,72.50
2022-09-04T10:01:01.757Z,71.79
2022-09-04T10:04:04.433Z,71.89
2022-09-04T10:06:45.015Z,72.48
2022-09-04T10:09:32.267Z,71.61
2022-09-04T10:12:07.086Z,71.02
2022-09-04T10:14:42.134Z,70.53
2022-09-04T10:17:19.576Z,70.84
2022-09-04T10:20:13.173Z,70.91
2022-09-04T10:22:49.397Z,70.61
2022-09-04T10:25:32.706Z,70.26
2022-09-04T10:28:05.357Z,70.01
2022-09-04T10:30:37.020Z,69.79
2022-09-04T10:33:20.375Z,70.46
2022-09-04T10:36:06.444Z,70.58
2022-09-04T10:38:38.219Z,70.38
2022-09-04T10:41:17.847Z,70.25
2022-09-04T10:44:04.123Z,69.87
2022-09-04T10:46:36.331Z,68.09
2022-09-04T10:49:15.192Z,66.54
2022-09-04T10:51:53.910Z,65.98
2022-09-04T10:54:45.224Z,64.88
2022-09-04T10:57:19.314Z,63.97
2022-09-04T10:59:59.127Z,63.62
2022-09-04T11:02:42.689Z,62.59
2022-09-04T11:05:24.651Z,62.88
2022-09-04T11:07:59.044Z,62.37
2022-09-04T11:10:31.828Z,63.01
2022-09-04T11:13:21.633Z,63.34
2022-09-04T11:16:11.034Z,62.83
2022-09-04T11:19:01.897Z,64.10
2022-09-04T11:21:49.800Z,65.70
2022-09-04T11:24:33.763Z,65.83
2022-09-04T11:27:17.367Z,66.65
2022-09-04T11:29:56.560Z,67.28
2022-09-04T11:32:32.205Z,67.46
2022-09-04T11:35:22.738Z,67.96
2022-09-04T11:38:02.328Z,67.76
2022-09-04T11:40:36.683Z,68.03
2022-09-04T11:43:10.798Z,68.24
2022-09-04T11:45:49.015Z,68.51
2022-09-04T11:48:26.621Z,68.75
2022-09-04T11:51:10.193Z,69.25
2022-09-04T11:53:48.498Z,67.88
2022-09-04T11:56:37.516Z,67.78
2022-09-04T11:59:11.822Z,68.00
2022-09-04T12:01:49.889Z,68.29
2022-09-04T12:04:39.362Z,68.71
2022-09-04T12:07:18.226Z,69.46
2022-09-04T12:09:52.853Z,69.32
2022-09-04T12:12:36.198Z,67.58
2022-09-04T12:15:28.599Z,67.67
2022-09-04T12:18:08.953Z,68.19
2022-09-04T12:20:48.140Z,69.25
2022-09-04T12:23:28.709Z,69.97
2022-09-04T12:26:16.932Z,70.47
2022-09-04T12:29:00.281Z,70.38
2022-09-04T12:31:36.714Z,69.95
2022-09-04T12:34:16.484Z,69.81
2022-09-04T12:37:00.801Z,70.22
2022-09-04T12:39:44.542Z,69.30
2022-09-04T12:42:15.024Z,69.46
2022-09-04T12:44:47.442Z,69.02
2022-09-04T12:47:23.898Z,68.88
2022-09-04T12:50:00.837Z,68.65
2022-09-04T12:52:35.224Z,68.31
2022-09-04T12:55:08.052Z,68.46
2022-09-04T12:57:38.866Z,68.75
2022-09-04T13:00:11.127Z,68.82
2022-09-04T13:02:47.163Z,68.99
2022-09-04T13:05:33.707Z,69.01
2022-09-04T13:08:05.900Z,68.68
2022-09-04T13:10:38.330Z,68.29
2022-09-04T13:13:11.592Z,68.58
2022-09-04T13:15:42.915Z,68.54
2022-09-04T13:18:21.505Z,68.09
2022-09-04T13:20:53.208Z,68.57
2022-09-04T13:23:28.890Z,68.81
2022-09-04T13:26:09.649Z,69.05
2022-09-04T13:28:42.769Z,68.90
2022-09-04T13:31:25.800Z,69.29
2022-09-04T13:33:57.104Z,69.50
2022-09-04T13:36:29.628Z,70.01
2022-09-04T13:39:07.297Z,70.04
2022-09-04T13:41:42.904Z,69.74
2022-09-04T13:44:21.190Z,69.97
2022-09-04T13:46:51.666Z,69.05
2022-09-04T13:49:24.607Z,68.77
2022-09-04T13:51:59.690Z,68.38
2022-09-04T13:54:31.290Z,68.10
2022-09-04T13:57:02.542Z,67.42
2022-09-04T13:59:32.548Z,67.11
2022-09-04T14:02:04.927Z,66.43
2022-09-04T14:04:36.946Z,65.89
2022-09-04T14:07:07.579Z,65.83
2022-09-04T14:09:39.627Z,65.43
2022-09-04T14:12:18.892Z,64.95
2022-09-04T14:15:08.327Z,65.11
2022-09-04T14:17:39.404Z,65.25
2022-09-04T14:20:12.789Z,65.74
2022-09-04T14:22:46.619Z,65.92
2022-09-04T14:25:18.817Z,66.49
2022-09-04T14:27:53.546Z,66.83
2022-09-04T14:30:23.547Z,66.93
2022-09-04T14:32:58.136Z,66.87
2022-09-04T14:35:31.869Z,67.29
2022-09-04T14:38:19.328Z,67.14
2022-09-04T14:40:50.714Z,66.51
2022-09-04T14:43:22.993Z,66.28
2022-09-04T14:46:09.355Z,66.24
2022-09-04T14:48:41.143Z,65.93
2022-09-04T14:51:15.991Z,65.72
2022-09-04T14:53:49.706Z,65.13
2022-09-04T14:56:24.700Z,64.15
2022-09-04T14:58:56.206Z,63.11
2022-09-04T15:01:26.369Z,62.20
2022-09-04T15:03:57.332Z,62.15
2022-09-04T15:06:31.412Z,61.85
2022-09-04T15:09:15.773Z,62.00
2022-09-04T15:11:46.515Z,62.64
2022-09-04T15:14:26.545Z,63.04
2022-09-04T15:16:57.844Z,62.79
2022-09-04T15:19:32.863Z,63.54
2022-09-04T15:22:05.488Z,63.62
2022-09-04T15:24:38.262Z,63.93
2022-09-04T15:27:12.951Z,64.16
2022-09-04T15:29:47.741Z,64.20
2022-09-04T15:32:22.535Z,64.56
2022-09-04T15:34:53.470Z,64.43
2022-09-04T15:37:24.283Z,64.24
2022-09-04T15:39:55.814Z,64.51
2022-09-04T15:42:37.040Z,64.63
2022-09-04T15:45:09.118Z,64.85
2022-09-04T15:47:46.665Z,65.13
2022-09-04T15:50:20.764Z,64.98
2022-09-04T15:52:52.589Z,65.04
2022-09-04T15:55:24.536Z,64.74
2022-09-04T15:57:59.215Z,64.63
2022-09-04T16:00:32.373Z,64.70
2022-09-04T16:03:07.203Z,64.92
2022-09-04T16:05:41.670Z,65.24
2022-09-04T16:08:21.527Z,65.33
2022-09-04T16:10:55.140Z,65.18
2022-09-04T16:13:36.297Z,65.26
2022-09-04T16:16:10.339Z,65.44
2022-09-04T16:18:47.093Z,65.40
2022-09-04T16:21:21.561Z,65.40
2022-09-04T16:23:51.833Z,65.59
2022-09-04T16:26:24.085Z,65.77
2022-09-04T16:28:56.433Z,65.98
2022-09-04T16:31:31.381Z,66.06
2022-09-04T16:34:01.533Z,66.13
2022-09-04T16:36:34.781Z,66.26
2022-09-04T16:39:12.082Z,66.17
2022-09-04T16:41:42.542Z,66.49
2022-09-04T16:44:15.932Z,66.38
2022-09-04T16:47:03.059Z,66.39
2022-09-04T16:49:35.652Z,66.60
2022-09-04T16:52:22.359Z,66.62
2022-09-04T16:54:53.553Z,66.79
2022-09-04T16:57:26.942Z,66.77
2022-09-04T16:59:57.610Z,66.47
2022-09-04T17:02:36.076Z,66.22
2022-09-04T17:05:13.608Z,65.59
2022-09-04T17:07:44.982Z,65.52
2022-09-04T17:10:21.953Z,64.99
2022-09-04T17:12:52.909Z,64.03
2022-09-04T17:15:27.316Z,63.22
2022-09-04T17:17:59.040Z,62.05
2022-09-04T17:20:53.683Z,62.07
2022-09-04T17:29:03.251Z,62.27
2022-09-04T17:29:13.598Z,62.49
2022-09-04T17:29:34.920Z,62.87
2022-09-04T17:31:56.209Z,63.14
2022-09-04T17:40:38.566Z,63.12
2022-09-04T17:40:44.397Z,63.34
2022-09-04T17:41:32.470Z,63.60
2022-09-04T17:43:22.621Z,64.01
2022-09-04T17:45:59.537Z,64.38
2022-09-04T17:48:29.799Z,65.07
2022-09-04T17:51:00.777Z,65.40
2022-09-04T17:53:33.566Z,65.62
2022-09-04T17:56:07.037Z,65.93
2022-09-04T17:58:38.846Z,66.64
2022-09-04T18:01:14.915Z,66.84
2022-09-04T18:04:21.077Z,66.75
2022-09-04T18:06:40.258Z,67.07
2022-09-04T18:09:12.652Z,67.52
2022-09-04T18:12:00.317Z,68.01
2022-09-04T18:14:35.513Z,68.09
2022-09-04T18:17:12.423Z,68.43
2022-09-04T18:19:44.904Z,68.98
2022-09-04T18:22:26.707Z,69.37
2022-09-04T18:25:16.251Z,69.89
2022-09-04T18:28:06.214Z,70.34
2022-09-04T18:37:07.300Z,71.49
2022-09-04T18:37:18.592Z,72.49
2022-09-04T18:37:21.499Z,71.80
2022-09-04T18:39:32.630Z,73.22
2022-09-04T18:48:21.788Z,73.35
2022-09-04T18:50:33.983Z,73.71
2022-09-04T18:50:53.076Z,73.90
2022-09-04T18:53:43.543Z,74.48
2022-09-04T18:56:20.968Z,74.60
2022-09-04T18:58:55.497Z,74.53
2022-09-04T19:01:27.170Z,74.79
2022-09-04T19:03:57.888Z,75.08
2022-09-04T19:06:32.444Z,75.13
2022-09-04T19:09:03.862Z,75.15
2022-09-04T19:11:34.150Z,75.52
2022-09-04T19:14:10.319Z,75.60
2022-09-04T19:16:41.298Z,75.56
2022-09-04T19:19:17.265Z,76.31
2022-09-04T19:21:57.524Z,76.48
2022-09-04T19:24:34.566Z,76.67
2022-09-04T19:27:26.911Z,77.09
2022-09-04T19:30:17.776Z,77.28
2022-09-04T19:33:08.879Z,77.40
2022-09-04T19:35:39.718Z,77.23
2022-09-04T19:41:51.506Z,77.44
2022-09-04T19:45:59.350Z,77.50
2022-09-04T19:46:07.452Z,77.63
2022-09-04T19:46:50.684Z,77.88
2022-09-04T19:53:11.474Z,78.19
2022-09-04T19:53:35.187Z,78.36
2022-09-04T19:55:24.657Z,78.64
2022-09-04T19:58:01.777Z,78.73
2022-09-04T20:00:44.003Z,78.76
2022-09-04T20:03:29.022Z,79.08
2022-09-04T20:06:20.767Z,79.39
2022-09-04T20:08:51.927Z,79.74
2022-09-04T20:11:34.859Z,79.91
2022-09-04T20:14:14.011Z,80.03
2022-09-04T20:16:50.042Z,80.10
2022-09-04T20:19:28.046Z,79.86
2022-09-04T20:22:01.239Z,79.99
2022-09-04T20:24:34.339Z,80.05
2022-09-04T20:27:07.148Z,80.01
2022-09-04T20:29:38.912Z,80.09
2022-09-04T20:32:11.265Z,80.18
2022-09-04T20:34:43.872Z,80.28
2022-09-04T20:37:26.080Z,80.30
2022-09-04T20:40:01.637Z,80.55
2022-09-04T20:42:32.135Z,80.64
2022-09-04T20:48:13.919Z,80.86
2022-09-04T20:52:49.710Z,81.19
2022-09-04T20:52:59.020Z,81.46
2022-09-04T20:53:41.388Z,81.48
2022-09-04T20:57:07.574Z,81.48
2022-09-04T21:03:10.464Z,81.52
2022-09-04T21:03:17.499Z,81.40
2022-09-04T21:04:52.111Z,81.39
2022-09-04T21:07:24.945Z,81.30
2022-09-04T21:09:58.667Z,81.26
2022-09-04T21:12:30.615Z,81.40
2022-09-04T21:15:04.465Z,81.31
2022-09-04T21:17:39.214Z,81.23
2022-09-04T21:20:29.576Z,81.20
2022-09-04T21:23:05.745Z,81.08
2022-09-04T21:25:37.695Z,81.18
2022-09-04T21:28:24.841Z,81.12
2022-09-04T21:31:14.229Z,80.98
2022-09-04T21:33:46.064Z,80.82
2022-09-04T21:36:26.516Z,80.69
2022-09-04T21:39:10.681Z,80.60
2022-09-04T21:41:44.710Z,80.57
2022-09-04T21:44:27.818Z,80.61
2022-09-04T21:47:08.453Z,80.49
2022-09-04T21:50:11.096Z,80.48
2022-09-04T21:52:57.069Z,80.39
2022-09-04T21:59:56.866Z,80.31
2022-09-04T22:02:31.587Z,80.20
2022-09-04T22:02:37.028Z,80.15
2022-09-04T22:04:18.996Z,80.07
2022-09-04T22:07:59.693Z,80.09
2022-09-04T22:13:33.969Z,80.02
2022-09-04T22:13:38.522Z,80.00
2022-09-04T22:15:49.123Z,80.00
2022-09-04T22:18:30.747Z,79.98
2022-09-04T22:21:03.895Z,80.01
2022-09-04T22:23:53.900Z,80.07
2022-09-04T22:26:29.309Z,80.09
2022-09-04T22:29:05.505Z,79.95
2022-09-04T22:31:48.748Z,79.89
2022-09-04T22:34:27.724Z,79.79
2022-09-04T22:37:08.781Z,79.78
2022-09-04T22:39:41.729Z,79.76
2022-09-04T22:42:31.050Z,79.72
2022-09-04T22:45:18.296Z,79.72
2022-09-04T22:47:54.437Z,79.88
2022-09-04T22:50:49.748Z,79.85
2022-09-04T22:53:33.639Z,79.91
2022-09-04T22:56:24.578Z,80.03
2022-09-04T22:59:20.284Z,80.01
2022-09-04T23:02:13.347Z,79.87
2022-09-04T23:04:55.242Z,79.94
2022-09-04T23:11:23.171Z,79.93
2022-09-04T23:13:47.317Z,79.77
2022-09-04T23:13:48.828Z,79.78
2022-09-04T23:16:39.320Z,79.76
2022-09-04T23:19:52.254Z,79.70
2022-09-04T23:26:36.373Z,79.66
2022-09-04T23:26:49.021Z,79.72
2022-09-04T23:27:52.218Z,79.64
2022-09-04T23:30:25.223Z,79.59
2022-09-04T23:33:06.684Z,79.53
2022-09-04T23:35:40.239Z,79.66
2022-09-04T23:38:19.684Z,79.73
2022-09-04T23:40:49.791Z,79.72
2022-09-04T23:43:24.601Z,79.71
2022-09-04T23:46:02.202Z,79.72
2022-09-04T23:48:38.857Z,79.60
2022-09-04T23:51:11.477Z,79.66
2022-09-04T23:53:44.258Z,79.74
2022-09-04T23:56:20.538Z,79.86
2022-09-04T23:59:21.205Z,79.92
